sensor_id;sensor_type;location;lat;lon;timestamp;P1;durP1;ratioP1;P2;durP2;ratioP2
53052;SDS011;38934;52.690;6.184;2023-10-31T00:01:49;2.90;;;2.30;;
53052;SDS011;38934;52.690;6.184;2023-10-31T00:04:15;3.20;;;2.15;;
53052;SDS011;38934;52.690;6.184;2023-10-31T00:06:40;3.05;;;2.10;;
53052;SDS011;38934;52.690;6.184;2023-10-31T00:09:06;3.60;;;2.40;;
53052;SDS011;38934;52.690;6.184;2023-10-31T00:11:32;5.05;;;2.55;;
53052;SDS011;38934;52.690;6.184;2023-10-31T00:13:57;5.60;;;2.70;;
53052;SDS011;38934;52.690;6.184;2023-10-31T00:16:24;6.03;;;2.80;;
53052;SDS011;38934;52.690;6.184;2023-10-31T00:18:49;7.15;;;2.78;;
53052;SDS011;38934;52.690;6.184;2023-10-31T00:21:15;6.20;;;2.90;;
53052;SDS011;38934;52.690;6.184;2023-10-31T00:23:44;8.05;;;2.97;;
53052;SDS011;38934;52.690;6.184;2023-10-31T00:26:13;12.20;;;3.33;;
53052;SDS011;38934;52.690;6.184;2023-10-31T00:28:40;5.60;;;2.90;;
53052;SDS011;38934;52.690;6.184;2023-10-31T00:31:05;4.60;;;2.03;;
53052;SDS011;38934;52.690;6.184;2023-10-31T00:33:33;7.10;;;2.55;;
53052;SDS011;38934;52.690;6.184;2023-10-31T00:36:02;7.50;;;2.80;;
53052;SDS011;38934;52.690;6.184;2023-10-31T00:38:28;5.80;;;2.50;;
53052;SDS011;38934;52.690;6.184;2023-10-31T00:40:54;9.98;;;2.75;;
53052;SDS011;38934;52.690;6.184;2023-10-31T00:43:19;6.53;;;2.75;;
53052;SDS011;38934;52.690;6.184;2023-10-31T00:45:45;3.17;;;2.00;;
53052;SDS011;38934;52.690;6.184;2023-10-31T00:48:11;3.25;;;1.80;;
53052;SDS011;38934;52.690;6.184;2023-10-31T00:50:36;4.82;;;1.73;;
53052;SDS011;38934;52.690;6.184;2023-10-31T00:53:04;5.72;;;1.70;;
53052;SDS011;38934;52.690;6.184;2023-10-31T00:55:29;5.38;;;2.30;;
53052;SDS011;38934;52.690;6.184;2023-10-31T00:57:55;6.10;;;2.35;;
53052;SDS011;38934;52.690;6.184;2023-10-31T01:00:20;7.25;;;2.65;;
53052;SDS011;38934;52.690;6.184;2023-10-31T01:02:46;8.90;;;3.00;;
53052;SDS011;38934;52.690;6.184;2023-10-31T01:05:12;7.32;;;2.58;;
53052;SDS011;38934;52.690;6.184;2023-10-31T01:07:37;8.63;;;2.67;;
53052;SDS011;38934;52.690;6.184;2023-10-31T01:10:03;8.90;;;2.88;;
53052;SDS011;38934;52.690;6.184;2023-10-31T01:12:29;13.27;;;2.80;;
53052;SDS011;38934;52.690;6.184;2023-10-31T01:14:56;7.65;;;2.42;;
53052;SDS011;38934;52.690;6.184;2023-10-31T01:17:21;8.02;;;2.15;;
53052;SDS011;38934;52.690;6.184;2023-10-31T01:19:47;7.38;;;2.70;;
53052;SDS011;38934;52.690;6.184;2023-10-31T01:22:13;9.15;;;2.25;;
53052;SDS011;38934;52.690;6.184;2023-10-31T01:24:38;7.80;;;2.15;;
53052;SDS011;38934;52.690;6.184;2023-10-31T01:27:04;6.60;;;2.00;;
53052;SDS011;38934;52.690;6.184;2023-10-31T01:29:30;13.65;;;2.20;;
53052;SDS011;38934;52.690;6.184;2023-10-31T01:31:56;14.10;;;2.63;;
53052;SDS011;38934;52.690;6.184;2023-10-31T01:34:21;9.23;;;2.15;;
53052;SDS011;38934;52.690;6.184;2023-10-31T01:36:47;12.18;;;2.45;;
53052;SDS011;38934;52.690;6.184;2023-10-31T01:39:13;12.63;;;2.20;;
53052;SDS011;38934;52.690;6.184;2023-10-31T01:41:42;6.75;;;1.90;;
53052;SDS011;38934;52.690;6.184;2023-10-31T01:44:08;16.33;;;2.90;;
53052;SDS011;38934;52.690;6.184;2023-10-31T01:46:34;11.00;;;3.05;;
53052;SDS011;38934;52.690;6.184;2023-10-31T01:49:00;10.50;;;2.70;;
53052;SDS011;38934;52.690;6.184;2023-10-31T01:51:26;12.57;;;3.42;;
53052;SDS011;38934;52.690;6.184;2023-10-31T01:53:53;16.65;;;4.15;;
53052;SDS011;38934;52.690;6.184;2023-10-31T01:56:19;18.48;;;5.05;;
53052;SDS011;38934;52.690;6.184;2023-10-31T01:58:45;20.85;;;4.63;;
53052;SDS011;38934;52.690;6.184;2023-10-31T02:01:12;16.85;;;4.22;;
53052;SDS011;38934;52.690;6.184;2023-10-31T02:03:38;12.98;;;4.68;;
53052;SDS011;38934;52.690;6.184;2023-10-31T02:06:04;14.25;;;4.60;;
53052;SDS011;38934;52.690;6.184;2023-10-31T02:08:30;16.75;;;4.95;;
53052;SDS011;38934;52.690;6.184;2023-10-31T02:10:56;13.93;;;4.05;;
53052;SDS011;38934;52.690;6.184;2023-10-31T02:13:21;11.63;;;4.20;;
53052;SDS011;38934;52.690;6.184;2023-10-31T02:15:47;7.20;;;3.80;;
53052;SDS011;38934;52.690;6.184;2023-10-31T02:18:13;12.13;;;4.20;;
53052;SDS011;38934;52.690;6.184;2023-10-31T02:20:39;14.52;;;4.30;;
53052;SDS011;38934;52.690;6.184;2023-10-31T02:23:05;12.13;;;4.25;;
53052;SDS011;38934;52.690;6.184;2023-10-31T02:25:32;9.25;;;3.90;;
53052;SDS011;38934;52.690;6.184;2023-10-31T02:27:58;14.75;;;4.82;;
53052;SDS011;38934;52.690;6.184;2023-10-31T02:30:24;10.45;;;4.57;;
53052;SDS011;38934;52.690;6.184;2023-10-31T02:32:50;11.63;;;4.53;;
53052;SDS011;38934;52.690;6.184;2023-10-31T02:35:16;13.05;;;4.60;;
53052;SDS011;38934;52.690;6.184;2023-10-31T02:37:43;14.82;;;4.57;;
53052;SDS011;38934;52.690;6.184;2023-10-31T02:40:09;13.43;;;4.80;;
53052;SDS011;38934;52.690;6.184;2023-10-31T02:42:35;12.85;;;4.30;;
53052;SDS011;38934;52.690;6.184;2023-10-31T02:45:01;15.50;;;4.07;;
53052;SDS011;38934;52.690;6.184;2023-10-31T02:47:28;13.65;;;4.50;;
53052;SDS011;38934;52.690;6.184;2023-10-31T02:49:54;14.23;;;4.38;;
53052;SDS011;38934;52.690;6.184;2023-10-31T02:52:19;12.23;;;5.18;;
53052;SDS011;38934;52.690;6.184;2023-10-31T02:54:45;15.60;;;4.93;;
53052;SDS011;38934;52.690;6.184;2023-10-31T02:57:10;14.75;;;4.57;;
53052;SDS011;38934;52.690;6.184;2023-10-31T02:59:36;14.32;;;5.43;;
53052;SDS011;38934;52.690;6.184;2023-10-31T03:02:02;14.73;;;5.20;;
53052;SDS011;38934;52.690;6.184;2023-10-31T03:04:28;13.60;;;5.60;;
53052;SDS011;38934;52.690;6.184;2023-10-31T03:06:53;12.70;;;5.15;;
53052;SDS011;38934;52.690;6.184;2023-10-31T03:09:19;12.80;;;5.00;;
53052;SDS011;38934;52.690;6.184;2023-10-31T03:11:45;14.00;;;4.90;;
53052;SDS011;38934;52.690;6.184;2023-10-31T03:14:10;12.73;;;4.68;;
53052;SDS011;38934;52.690;6.184;2023-10-31T03:16:36;9.88;;;4.10;;
53052;SDS011;38934;52.690;6.184;2023-10-31T03:19:01;11.68;;;4.00;;
53052;SDS011;38934;52.690;6.184;2023-10-31T03:21:27;8.75;;;3.47;;
53052;SDS011;38934;52.690;6.184;2023-10-31T03:23:53;8.52;;;3.15;;
53052;SDS011;38934;52.690;6.184;2023-10-31T03:26:20;14.20;;;3.25;;
53052;SDS011;38934;52.690;6.184;2023-10-31T03:28:47;8.15;;;2.97;;
53052;SDS011;38934;52.690;6.184;2023-10-31T03:31:13;8.60;;;2.83;;
53052;SDS011;38934;52.690;6.184;2023-10-31T03:33:39;6.22;;;2.60;;
53052;SDS011;38934;52.690;6.184;2023-10-31T03:36:05;7.70;;;2.70;;
53052;SDS011;38934;52.690;6.184;2023-10-31T03:38:31;6.88;;;2.60;;
53052;SDS011;38934;52.690;6.184;2023-10-31T03:40:57;7.88;;;2.70;;
53052;SDS011;38934;52.690;6.184;2023-10-31T03:43:23;7.75;;;2.85;;
53052;SDS011;38934;52.690;6.184;2023-10-31T03:45:48;10.38;;;3.03;;
53052;SDS011;38934;52.690;6.184;2023-10-31T03:48:17;8.63;;;3.00;;
53052;SDS011;38934;52.690;6.184;2023-10-31T03:50:43;11.10;;;3.15;;
53052;SDS011;38934;52.690;6.184;2023-10-31T03:53:09;12.57;;;3.63;;
53052;SDS011;38934;52.690;6.184;2023-10-31T03:55:35;12.88;;;3.47;;
53052;SDS011;38934;52.690;6.184;2023-10-31T03:58:01;9.48;;;4.03;;
53052;SDS011;38934;52.690;6.184;2023-10-31T04:00:27;11.48;;;3.78;;
53052;SDS011;38934;52.690;6.184;2023-10-31T04:02:53;9.70;;;3.47;;
53052;SDS011;38934;52.690;6.184;2023-10-31T04:05:18;9.93;;;4.25;;
53052;SDS011;38934;52.690;6.184;2023-10-31T04:07:47;10.95;;;4.15;;
53052;SDS011;38934;52.690;6.184;2023-10-31T04:10:13;15.65;;;4.07;;
53052;SDS011;38934;52.690;6.184;2023-10-31T04:12:39;11.32;;;4.35;;
53052;SDS011;38934;52.690;6.184;2023-10-31T04:15:06;12.38;;;3.83;;
53052;SDS011;38934;52.690;6.184;2023-10-31T04:17:34;10.50;;;3.78;;
53052;SDS011;38934;52.690;6.184;2023-10-31T04:20:00;8.98;;;3.70;;
53052;SDS011;38934;52.690;6.184;2023-10-31T04:22:26;11.13;;;3.60;;
53052;SDS011;38934;52.690;6.184;2023-10-31T04:24:51;9.55;;;3.50;;
53052;SDS011;38934;52.690;6.184;2023-10-31T04:27:17;9.77;;;3.20;;
53052;SDS011;38934;52.690;6.184;2023-10-31T04:29:43;11.60;;;3.13;;
53052;SDS011;38934;52.690;6.184;2023-10-31T04:32:09;17.00;;;3.67;;
53052;SDS011;38934;52.690;6.184;2023-10-31T04:34:35;10.85;;;3.55;;
53052;SDS011;38934;52.690;6.184;2023-10-31T04:37:01;14.65;;;3.33;;
53052;SDS011;38934;52.690;6.184;2023-10-31T04:39:27;15.18;;;3.63;;
53052;SDS011;38934;52.690;6.184;2023-10-31T04:41:52;9.63;;;3.15;;
53052;SDS011;38934;52.690;6.184;2023-10-31T04:44:18;8.60;;;3.65;;
53052;SDS011;38934;52.690;6.184;2023-10-31T04:46:44;10.98;;;3.67;;
53052;SDS011;38934;52.690;6.184;2023-10-31T04:49:09;12.55;;;3.67;;
53052;SDS011;38934;52.690;6.184;2023-10-31T04:51:35;8.80;;;3.22;;
53052;SDS011;38934;52.690;6.184;2023-10-31T04:54:02;7.70;;;3.13;;
53052;SDS011;38934;52.690;6.184;2023-10-31T04:56:28;7.32;;;2.65;;
53052;SDS011;38934;52.690;6.184;2023-10-31T04:58:54;6.95;;;2.33;;
53052;SDS011;38934;52.690;6.184;2023-10-31T05:01:19;6.95;;;2.38;;
53052;SDS011;38934;52.690;6.184;2023-10-31T05:03:45;7.75;;;2.55;;
53052;SDS011;38934;52.690;6.184;2023-10-31T05:06:11;8.38;;;2.30;;
53052;SDS011;38934;52.690;6.184;2023-10-31T05:08:36;6.45;;;1.80;;
53052;SDS011;38934;52.690;6.184;2023-10-31T05:11:02;5.57;;;2.20;;
53052;SDS011;38934;52.690;6.184;2023-10-31T05:13:28;5.25;;;1.85;;
53052;SDS011;38934;52.690;6.184;2023-10-31T05:15:54;3.83;;;1.60;;
53052;SDS011;38934;52.690;6.184;2023-10-31T05:18:19;2.78;;;1.60;;
53052;SDS011;38934;52.690;6.184;2023-10-31T05:20:45;7.70;;;1.88;;
53052;SDS011;38934;52.690;6.184;2023-10-31T05:23:11;7.07;;;2.33;;
53052;SDS011;38934;52.690;6.184;2023-10-31T05:25:37;7.68;;;2.30;;
53052;SDS011;38934;52.690;6.184;2023-10-31T05:28:03;6.60;;;1.80;;
53052;SDS011;38934;52.690;6.184;2023-10-31T05:30:30;8.82;;;2.22;;
53052;SDS011;38934;52.690;6.184;2023-10-31T05:32:56;7.55;;;1.70;;
53052;SDS011;38934;52.690;6.184;2023-10-31T05:35:22;7.60;;;2.30;;
53052;SDS011;38934;52.690;6.184;2023-10-31T05:37:47;4.97;;;1.83;;
53052;SDS011;38934;52.690;6.184;2023-10-31T05:40:14;6.90;;;2.10;;
53052;SDS011;38934;52.690;6.184;2023-10-31T05:42:41;6.03;;;2.17;;
53052;SDS011;38934;52.690;6.184;2023-10-31T05:45:07;8.65;;;2.80;;
53052;SDS011;38934;52.690;6.184;2023-10-31T05:47:33;5.85;;;3.08;;
53052;SDS011;38934;52.690;6.184;2023-10-31T05:49:59;9.38;;;3.38;;
53052;SDS011;38934;52.690;6.184;2023-10-31T05:52:28;5.72;;;3.05;;
53052;SDS011;38934;52.690;6.184;2023-10-31T05:54:57;8.68;;;2.70;;
53052;SDS011;38934;52.690;6.184;2023-10-31T05:57:23;4.28;;;2.03;;
53052;SDS011;38934;52.690;6.184;2023-10-31T05:59:49;8.00;;;2.53;;
53052;SDS011;38934;52.690;6.184;2023-10-31T06:02:17;4.03;;;1.98;;
53052;SDS011;38934;52.690;6.184;2023-10-31T06:04:43;6.75;;;2.33;;
53052;SDS011;38934;52.690;6.184;2023-10-31T06:07:10;6.00;;;2.20;;
53052;SDS011;38934;52.690;6.184;2023-10-31T06:09:37;4.57;;;1.90;;
53052;SDS011;38934;52.690;6.184;2023-10-31T06:12:03;6.05;;;1.95;;
53052;SDS011;38934;52.690;6.184;2023-10-31T06:14:30;4.25;;;2.20;;
53052;SDS011;38934;52.690;6.184;2023-10-31T06:16:56;6.05;;;2.50;;
53052;SDS011;38934;52.690;6.184;2023-10-31T06:19:24;3.97;;;1.80;;
53052;SDS011;38934;52.690;6.184;2023-10-31T06:21:49;2.78;;;1.90;;
53052;SDS011;38934;52.690;6.184;2023-10-31T06:24:15;4.60;;;2.08;;
53052;SDS011;38934;52.690;6.184;2023-10-31T06:26:49;4.13;;;1.92;;
53052;SDS011;38934;52.690;6.184;2023-10-31T06:29:14;4.32;;;1.98;;
53052;SDS011;38934;52.690;6.184;2023-10-31T06:31:40;5.32;;;2.25;;
53052;SDS011;38934;52.690;6.184;2023-10-31T06:34:06;4.65;;;2.22;;
53052;SDS011;38934;52.690;6.184;2023-10-31T06:36:31;4.85;;;2.15;;
53052;SDS011;38934;52.690;6.184;2023-10-31T06:38:57;4.80;;;2.30;;
53052;SDS011;38934;52.690;6.184;2023-10-31T06:41:23;6.15;;;2.15;;
53052;SDS011;38934;52.690;6.184;2023-10-31T06:43:49;6.47;;;2.20;;
53052;SDS011;38934;52.690;6.184;2023-10-31T06:46:15;6.97;;;2.20;;
53052;SDS011;38934;52.690;6.184;2023-10-31T06:48:41;4.32;;;2.50;;
53052;SDS011;38934;52.690;6.184;2023-10-31T06:51:07;8.85;;;2.47;;
53052;SDS011;38934;52.690;6.184;2023-10-31T06:53:33;6.13;;;2.35;;
53052;SDS011;38934;52.690;6.184;2023-10-31T06:55:59;6.13;;;2.47;;
53052;SDS011;38934;52.690;6.184;2023-10-31T06:58:25;5.38;;;2.50;;
53052;SDS011;38934;52.690;6.184;2023-10-31T07:00:51;9.10;;;2.30;;
53052;SDS011;38934;52.690;6.184;2023-10-31T07:03:17;7.45;;;2.50;;
53052;SDS011;38934;52.690;6.184;2023-10-31T07:05:42;7.30;;;2.33;;
53052;SDS011;38934;52.690;6.184;2023-10-31T07:08:08;8.15;;;2.67;;
53052;SDS011;38934;52.690;6.184;2023-10-31T07:10:34;4.95;;;2.38;;
53052;SDS011;38934;52.690;6.184;2023-10-31T07:13:00;9.80;;;2.08;;
53052;SDS011;38934;52.690;6.184;2023-10-31T07:15:25;4.45;;;2.10;;
53052;SDS011;38934;52.690;6.184;2023-10-31T07:17:51;7.25;;;2.42;;
53052;SDS011;38934;52.690;6.184;2023-10-31T07:20:17;8.93;;;2.53;;
53052;SDS011;38934;52.690;6.184;2023-10-31T07:22:42;9.02;;;2.80;;
53052;SDS011;38934;52.690;6.184;2023-10-31T07:25:08;6.72;;;2.85;;
53052;SDS011;38934;52.690;6.184;2023-10-31T07:27:34;8.40;;;2.70;;
53052;SDS011;38934;52.690;6.184;2023-10-31T07:30:01;6.47;;;3.10;;
53052;SDS011;38934;52.690;6.184;2023-10-31T07:32:29;6.38;;;3.10;;
53052;SDS011;38934;52.690;6.184;2023-10-31T07:34:54;6.47;;;3.17;;
53052;SDS011;38934;52.690;6.184;2023-10-31T07:37:20;11.50;;;3.00;;
53052;SDS011;38934;52.690;6.184;2023-10-31T07:39:46;9.50;;;3.15;;
53052;SDS011;38934;52.690;6.184;2023-10-31T07:42:11;5.72;;;2.97;;
53052;SDS011;38934;52.690;6.184;2023-10-31T07:44:37;7.22;;;3.13;;
53052;SDS011;38934;52.690;6.184;2023-10-31T07:47:03;7.00;;;3.70;;
53052;SDS011;38934;52.690;6.184;2023-10-31T07:49:29;5.97;;;3.00;;
53052;SDS011;38934;52.690;6.184;2023-10-31T07:51:55;9.88;;;3.50;;
53052;SDS011;38934;52.690;6.184;2023-10-31T07:54:21;8.35;;;3.22;;
53052;SDS011;38934;52.690;6.184;2023-10-31T07:56:47;6.10;;;2.92;;
53052;SDS011;38934;52.690;6.184;2023-10-31T07:59:12;7.93;;;3.00;;
53052;SDS011;38934;52.690;6.184;2023-10-31T08:01:38;7.05;;;2.60;;
53052;SDS011;38934;52.690;6.184;2023-10-31T08:04:03;13.35;;;3.22;;
53052;SDS011;38934;52.690;6.184;2023-10-31T08:06:29;6.55;;;2.60;;
53052;SDS011;38934;52.690;6.184;2023-10-31T08:08:55;4.47;;;2.10;;
53052;SDS011;38934;52.690;6.184;2023-10-31T08:11:21;8.50;;;2.10;;
53052;SDS011;38934;52.690;6.184;2023-10-31T08:13:46;5.68;;;2.00;;
53052;SDS011;38934;52.690;6.184;2023-10-31T08:16:16;4.63;;;2.03;;
53052;SDS011;38934;52.690;6.184;2023-10-31T08:18:44;4.80;;;1.97;;
53052;SDS011;38934;52.690;6.184;2023-10-31T08:21:11;3.67;;;2.22;;
53052;SDS011;38934;52.690;6.184;2023-10-31T08:23:36;5.00;;;2.08;;
53052;SDS011;38934;52.690;6.184;2023-10-31T08:26:02;8.50;;;2.30;;
53052;SDS011;38934;52.690;6.184;2023-10-31T08:28:28;9.75;;;2.22;;
53052;SDS011;38934;52.690;6.184;2023-10-31T08:30:55;9.90;;;2.72;;
53052;SDS011;38934;52.690;6.184;2023-10-31T08:33:21;8.95;;;2.60;;
53052;SDS011;38934;52.690;6.184;2023-10-31T08:35:46;7.15;;;2.70;;
53052;SDS011;38934;52.690;6.184;2023-10-31T08:38:14;6.50;;;2.35;;
53052;SDS011;38934;52.690;6.184;2023-10-31T08:40:40;8.60;;;2.58;;
53052;SDS011;38934;52.690;6.184;2023-10-31T08:43:06;6.20;;;2.40;;
53052;SDS011;38934;52.690;6.184;2023-10-31T08:45:32;9.98;;;2.60;;
53052;SDS011;38934;52.690;6.184;2023-10-31T08:47:59;6.85;;;2.80;;
53052;SDS011;38934;52.690;6.184;2023-10-31T08:50:25;7.50;;;2.40;;
53052;SDS011;38934;52.690;6.184;2023-10-31T08:52:50;8.55;;;2.35;;
53052;SDS011;38934;52.690;6.184;2023-10-31T08:55:16;6.10;;;2.10;;
53052;SDS011;38934;52.690;6.184;2023-10-31T08:57:42;6.82;;;1.98;;
53052;SDS011;38934;52.690;6.184;2023-10-31T09:00:08;4.80;;;2.08;;
53052;SDS011;38934;52.690;6.184;2023-10-31T09:02:34;5.82;;;2.15;;
53052;SDS011;38934;52.690;6.184;2023-10-31T09:05:00;8.77;;;2.00;;
53052;SDS011;38934;52.690;6.184;2023-10-31T09:07:25;4.20;;;1.67;;
53052;SDS011;38934;52.690;6.184;2023-10-31T09:09:52;8.95;;;1.90;;
53052;SDS011;38934;52.690;6.184;2023-10-31T09:12:17;5.28;;;1.80;;
53052;SDS011;38934;52.690;6.184;2023-10-31T09:14:43;6.15;;;1.65;;
53052;SDS011;38934;52.690;6.184;2023-10-31T09:17:09;5.75;;;1.55;;
53052;SDS011;38934;52.690;6.184;2023-10-31T09:19:34;5.88;;;1.63;;
53052;SDS011;38934;52.690;6.184;2023-10-31T09:22:00;7.10;;;1.80;;
53052;SDS011;38934;52.690;6.184;2023-10-31T09:24:26;6.47;;;1.35;;
53052;SDS011;38934;52.690;6.184;2023-10-31T09:26:51;7.18;;;2.03;;
53052;SDS011;38934;52.690;6.184;2023-10-31T09:29:17;8.32;;;2.20;;
53052;SDS011;38934;52.690;6.184;2023-10-31T09:31:43;11.05;;;2.20;;
53052;SDS011;38934;52.690;6.184;2023-10-31T09:34:08;8.07;;;2.33;;
53052;SDS011;38934;52.690;6.184;2023-10-31T09:36:34;9.10;;;2.20;;
53052;SDS011;38934;52.690;6.184;2023-10-31T09:39:00;12.63;;;1.77;;
53052;SDS011;38934;52.690;6.184;2023-10-31T09:41:26;7.18;;;1.75;;
53052;SDS011;38934;52.690;6.184;2023-10-31T09:43:52;6.28;;;2.03;;
53052;SDS011;38934;52.690;6.184;2023-10-31T09:46:18;6.30;;;1.77;;
53052;SDS011;38934;52.690;6.184;2023-10-31T09:48:44;8.77;;;2.22;;
53052;SDS011;38934;52.690;6.184;2023-10-31T09:51:10;6.50;;;1.73;;
53052;SDS011;38934;52.690;6.184;2023-10-31T09:53:38;3.92;;;1.50;;
53052;SDS011;38934;52.690;6.184;2023-10-31T09:56:07;5.63;;;1.45;;
53052;SDS011;38934;52.690;6.184;2023-10-31T09:58:36;7.50;;;2.40;;
53052;SDS011;38934;52.690;6.184;2023-10-31T10:01:04;8.18;;;1.50;;
53052;SDS011;38934;52.690;6.184;2023-10-31T10:03:30;6.18;;;1.60;;
53052;SDS011;38934;52.690;6.184;2023-10-31T10:05:56;2.33;;;1.10;;
53052;SDS011;38934;52.690;6.184;2023-10-31T10:08:22;5.70;;;1.20;;
53052;SDS011;38934;52.690;6.184;2023-10-31T10:10:48;3.60;;;1.20;;
53052;SDS011;38934;52.690;6.184;2023-10-31T10:13:17;4.25;;;1.20;;
53052;SDS011;38934;52.690;6.184;2023-10-31T10:15:47;4.53;;;1.13;;
53052;SDS011;38934;52.690;6.184;2023-10-31T10:18:32;5.85;;;1.10;;
53052;SDS011;38934;52.690;6.184;2023-10-31T10:21:01;4.25;;;1.65;;
53052;SDS011;38934;52.690;6.184;2023-10-31T10:23:28;3.25;;;0.80;;
53052;SDS011;38934;52.690;6.184;2023-10-31T10:25:55;5.82;;;1.27;;
53052;SDS011;38934;52.690;6.184;2023-10-31T10:28:21;3.75;;;1.40;;
53052;SDS011;38934;52.690;6.184;2023-10-31T10:30:50;5.30;;;1.50;;
53052;SDS011;38934;52.690;6.184;2023-10-31T10:33:16;5.00;;;1.50;;
53052;SDS011;38934;52.690;6.184;2023-10-31T10:35:43;4.60;;;1.50;;
53052;SDS011;38934;52.690;6.184;2023-10-31T10:38:16;3.80;;;1.40;;
53052;SDS011;38934;52.690;6.184;2023-10-31T10:40:45;5.15;;;1.70;;
53052;SDS011;38934;52.690;6.184;2023-10-31T10:43:26;4.45;;;1.30;;
53052;SDS011;38934;52.690;6.184;2023-10-31T10:45:57;4.85;;;1.30;;
53052;SDS011;38934;52.690;6.184;2023-10-31T10:48:24;5.13;;;1.30;;
53052;SDS011;38934;52.690;6.184;2023-10-31T10:50:56;2.42;;;1.02;;
53052;SDS011;38934;52.690;6.184;2023-10-31T10:53:51;3.15;;;1.20;;
53052;SDS011;38934;52.690;6.184;2023-10-31T11:01:32;3.50;;;1.00;;
53052;SDS011;38934;52.690;6.184;2023-10-31T11:04:00;3.92;;;1.00;;
53052;SDS011;38934;52.690;6.184;2023-10-31T11:06:28;5.55;;;1.70;;
53052;SDS011;38934;52.690;6.184;2023-10-31T11:08:54;4.43;;;1.13;;
53052;SDS011;38934;52.690;6.184;2023-10-31T11:11:21;4.38;;;1.10;;
53052;SDS011;38934;52.690;6.184;2023-10-31T11:13:48;4.07;;;1.15;;
53052;SDS011;38934;52.690;6.184;2023-10-31T11:19:08;4.20;;;1.10;;
53052;SDS011;38934;52.690;6.184;2023-10-31T11:21:34;2.30;;;0.88;;
53052;SDS011;38934;52.690;6.184;2023-10-31T11:24:02;4.10;;;1.27;;
53052;SDS011;38934;52.690;6.184;2023-10-31T11:26:31;7.45;;;1.45;;
53052;SDS011;38934;52.690;6.184;2023-10-31T11:29:04;3.70;;;1.63;;
53052;SDS011;38934;52.690;6.184;2023-10-31T11:31:37;3.45;;;1.08;;
53052;SDS011;38934;52.690;6.184;2023-10-31T11:34:02;4.03;;;1.50;;
53052;SDS011;38934;52.690;6.184;2023-10-31T11:36:31;6.53;;;1.38;;
53052;SDS011;38934;52.690;6.184;2023-10-31T11:39:12;4.57;;;1.30;;
53052;SDS011;38934;52.690;6.184;2023-10-31T11:41:50;2.88;;;0.95;;
53052;SDS011;38934;52.690;6.184;2023-10-31T11:44:25;4.70;;;1.20;;
53052;SDS011;38934;52.690;6.184;2023-10-31T11:46:52;3.30;;;1.02;;
53052;SDS011;38934;52.690;6.184;2023-10-31T11:49:28;3.67;;;1.25;;
53052;SDS011;38934;52.690;6.184;2023-10-31T11:52:14;7.10;;;1.40;;
53052;SDS011;38934;52.690;6.184;2023-10-31T11:54:41;3.00;;;1.10;;
53052;SDS011;38934;52.690;6.184;2023-10-31T11:57:07;4.57;;;1.13;;
53052;SDS011;38934;52.690;6.184;2023-10-31T11:59:39;8.70;;;1.13;;
53052;SDS011;38934;52.690;6.184;2023-10-31T12:02:14;4.40;;;1.30;;
53052;SDS011;38934;52.690;6.184;2023-10-31T12:04:40;3.83;;;1.02;;
53052;SDS011;38934;52.690;6.184;2023-10-31T12:07:06;3.20;;;1.00;;
53052;SDS011;38934;52.690;6.184;2023-10-31T12:09:32;4.25;;;1.25;;
53052;SDS011;38934;52.690;6.184;2023-10-31T12:11:58;2.97;;;1.00;;
53052;SDS011;38934;52.690;6.184;2023-10-31T12:14:24;2.60;;;0.98;;
53052;SDS011;38934;52.690;6.184;2023-10-31T12:16:49;3.45;;;0.90;;
53052;SDS011;38934;52.690;6.184;2023-10-31T12:19:15;4.90;;;1.38;;
53052;SDS011;38934;52.690;6.184;2023-10-31T12:21:41;4.55;;;1.58;;
53052;SDS011;38934;52.690;6.184;2023-10-31T12:24:15;6.72;;;2.28;;
53052;SDS011;38934;52.690;6.184;2023-10-31T12:26:42;4.30;;;1.40;;
53052;SDS011;38934;52.690;6.184;2023-10-31T12:29:19;7.18;;;1.17;;
53052;SDS011;38934;52.690;6.184;2023-10-31T12:31:46;4.20;;;1.05;;
53052;SDS011;38934;52.690;6.184;2023-10-31T12:34:14;5.22;;;1.30;;
53052;SDS011;38934;52.690;6.184;2023-10-31T12:36:41;3.90;;;1.17;;
53052;SDS011;38934;52.690;6.184;2023-10-31T12:39:07;3.47;;;1.00;;
53052;SDS011;38934;52.690;6.184;2023-10-31T12:41:36;2.38;;;1.10;;
53052;SDS011;38934;52.690;6.184;2023-10-31T12:44:03;3.67;;;1.13;;
53052;SDS011;38934;52.690;6.184;2023-10-31T12:46:30;4.07;;;1.10;;
53052;SDS011;38934;52.690;6.184;2023-10-31T12:48:57;3.63;;;1.17;;
53052;SDS011;38934;52.690;6.184;2023-10-31T12:51:23;4.03;;;1.08;;
53052;SDS011;38934;52.690;6.184;2023-10-31T12:53:50;2.78;;;1.30;;
53052;SDS011;38934;52.690;6.184;2023-10-31T12:56:40;5.05;;;1.20;;
53052;SDS011;38934;52.690;6.184;2023-10-31T12:59:07;2.97;;;1.20;;
53052;SDS011;38934;52.690;6.184;2023-10-31T13:01:34;3.10;;;1.35;;
53052;SDS011;38934;52.690;6.184;2023-10-31T13:04:01;3.20;;;1.27;;
53052;SDS011;38934;52.690;6.184;2023-10-31T13:06:27;4.60;;;1.30;;
53052;SDS011;38934;52.690;6.184;2023-10-31T13:08:55;5.95;;;1.17;;
53052;SDS011;38934;52.690;6.184;2023-10-31T13:11:22;0.82;;;0.70;;
53052;SDS011;38934;52.690;6.184;2023-10-31T13:13:51;2.10;;;0.90;;
53052;SDS011;38934;52.690;6.184;2023-10-31T13:16:18;3.08;;;1.00;;
53052;SDS011;38934;52.690;6.184;2023-10-31T13:18:44;3.88;;;0.90;;
53052;SDS011;38934;52.690;6.184;2023-10-31T13:21:10;2.78;;;1.10;;
53052;SDS011;38934;52.690;6.184;2023-10-31T13:23:37;2.30;;;1.20;;
53052;SDS011;38934;52.690;6.184;2023-10-31T13:26:04;3.55;;;1.05;;
53052;SDS011;38934;52.690;6.184;2023-10-31T13:28:29;4.53;;;0.90;;
53052;SDS011;38934;52.690;6.184;2023-10-31T13:30:57;2.85;;;0.73;;
53052;SDS011;38934;52.690;6.184;2023-10-31T13:33:23;7.78;;;1.35;;
53052;SDS011;38934;52.690;6.184;2023-10-31T13:35:48;7.03;;;1.60;;
53052;SDS011;38934;52.690;6.184;2023-10-31T13:38:14;7.68;;;1.38;;
53052;SDS011;38934;52.690;6.184;2023-10-31T13:40:40;5.43;;;1.30;;
53052;SDS011;38934;52.690;6.184;2023-10-31T13:43:06;2.53;;;0.70;;
53052;SDS011;38934;52.690;6.184;2023-10-31T13:45:33;3.72;;;1.08;;
53052;SDS011;38934;52.690;6.184;2023-10-31T13:47:58;2.28;;;0.80;;
53052;SDS011;38934;52.690;6.184;2023-10-31T13:50:24;0.93;;;0.70;;
53052;SDS011;38934;52.690;6.184;2023-10-31T13:52:50;1.95;;;1.02;;
53052;SDS011;38934;52.690;6.184;2023-10-31T13:55:17;1.75;;;1.25;;
53052;SDS011;38934;52.690;6.184;2023-10-31T13:57:43;4.88;;;1.05;;
53052;SDS011;38934;52.690;6.184;2023-10-31T14:00:09;2.63;;;1.10;;
53052;SDS011;38934;52.690;6.184;2023-10-31T14:02:35;8.45;;;1.20;;
53052;SDS011;38934;52.690;6.184;2023-10-31T14:05:01;2.88;;;1.60;;
53052;SDS011;38934;52.690;6.184;2023-10-31T14:07:29;1.95;;;1.67;;
53052;SDS011;38934;52.690;6.184;2023-10-31T14:09:54;1.75;;;1.00;;
53052;SDS011;38934;52.690;6.184;2023-10-31T14:12:21;1.83;;;0.90;;
53052;SDS011;38934;52.690;6.184;2023-10-31T14:14:47;4.60;;;1.50;;
53052;SDS011;38934;52.690;6.184;2023-10-31T14:17:14;4.55;;;2.17;;
53052;SDS011;38934;52.690;6.184;2023-10-31T14:19:41;3.38;;;1.55;;
53052;SDS011;38934;52.690;6.184;2023-10-31T14:22:07;2.75;;;1.30;;
53052;SDS011;38934;52.690;6.184;2023-10-31T14:24:33;5.07;;;1.92;;
53052;SDS011;38934;52.690;6.184;2023-10-31T14:27:00;7.07;;;1.35;;
53052;SDS011;38934;52.690;6.184;2023-10-31T14:29:26;2.60;;;0.88;;
53052;SDS011;38934;52.690;6.184;2023-10-31T14:31:52;1.92;;;0.70;;
53052;SDS011;38934;52.690;6.184;2023-10-31T14:34:19;0.80;;;0.80;;
53052;SDS011;38934;52.690;6.184;2023-10-31T14:36:46;2.05;;;0.63;;
53052;SDS011;38934;52.690;6.184;2023-10-31T14:39:12;0.52;;;0.52;;
53052;SDS011;38934;52.690;6.184;2023-10-31T14:41:38;1.42;;;0.90;;
53052;SDS011;38934;52.690;6.184;2023-10-31T14:44:04;0.98;;;0.80;;
53052;SDS011;38934;52.690;6.184;2023-10-31T14:46:32;0.93;;;0.80;;
53052;SDS011;38934;52.690;6.184;2023-10-31T14:48:58;1.88;;;0.70;;
53052;SDS011;38934;52.690;6.184;2023-10-31T14:51:24;1.52;;;0.80;;